createdAt,value
2022-11-24T17:31:55.826Z,10.75
2022-11-24T17:46:26.565Z,10.86
2022-11-24T17:48:56.673Z,11.04
2022-11-24T17:51:25.406Z,11.87
2022-11-24T17:53:55.585Z,11.55
2022-11-24T17:56:23.721Z,11.60
2022-11-24T17:58:59.703Z,11.76
2022-11-24T18:04:10.039Z,12.33
2022-11-24T18:06:37.149Z,11.66
2022-11-24T18:09:05.524Z,11.84
2022-11-24T18:11:36.400Z,12.03
2022-11-24T18:14:05.033Z,11.89
2022-11-24T18:16:35.811Z,12.36
2022-11-24T18:19:11.045Z,12.76
2022-11-24T18:21:38.443Z,13.12
2022-11-24T18:24:10.450Z,13.04
2022-11-24T18:26:48.882Z,12.52
2022-11-24T18:29:17.348Z,12.92
2022-11-24T18:31:44.147Z,13.47
2022-11-24T18:34:11.534Z,13.48
2022-11-24T18:36:41.751Z,13.23
2022-11-24T18:39:09.008Z,13.10
2022-11-24T18:41:35.814Z,13.50
2022-11-24T18:44:02.889Z,13.22
2022-11-24T18:46:33.255Z,12.91
2022-11-24T18:49:01.145Z,12.50
2022-11-24T18:51:37.438Z,12.00
2022-11-24T18:54:09.813Z,11.59
2022-11-24T18:56:37.985Z,11.56
2022-11-24T18:59:06.622Z,11.95
2022-11-24T19:01:37.058Z,12.19
2022-11-24T19:04:05.913Z,12.35
2022-11-24T19:06:32.965Z,12.09
2022-11-24T19:08:59.842Z,11.85
2022-11-24T19:14:06.762Z,11.07
2022-11-24T19:19:21.434Z,10.96
2022-11-24T19:21:52.966Z,11.07
2022-11-24T19:24:23.555Z,10.59
2022-11-24T19:29:44.318Z,10.99
2022-11-24T19:32:11.554Z,10.89
2022-11-24T19:34:40.282Z,10.89
2022-11-24T19:37:08.018Z,11.71
2022-11-24T19:42:18.075Z,11.15
2022-11-24T19:44:45.306Z,10.84
2022-11-24T19:47:12.680Z,10.99
2022-11-24T19:49:41.628Z,10.80
2022-11-24T19:52:27.739Z,11.42
2022-11-24T19:54:54.408Z,11.58
2022-11-24T19:57:23.064Z,11.26
2022-11-24T20:11:55.947Z,10.05
2022-11-24T20:14:43.313Z,9.64
2022-11-24T20:17:12.233Z,9.81
2022-11-24T20:19:40.104Z,9.96
2022-11-24T20:39:15.629Z,10.92
2022-11-24T20:41:45.351Z,10.80
2022-11-24T21:21:39.144Z,10.64
